createdAt,value
2022-09-10T00:00:40.704Z,56.47
2022-09-10T00:03:12.692Z,56.53
2022-09-10T00:05:49.096Z,51.27
2022-09-10T00:08:20.989Z,53.50
2022-09-10T00:10:52.644Z,57.87
2022-09-10T00:13:24.191Z,52.07
2022-09-10T00:15:55.759Z,55.17
2022-09-10T00:18:27.311Z,56.03
2022-09-10T00:21:02.368Z,56.27
2022-09-10T00:23:36.050Z,52.77
2022-09-10T00:26:28.085Z,53.50
2022-09-10T00:29:00.464Z,50.90
2022-09-10T00:31:34.000Z,54.10
2022-09-10T00:34:09.058Z,53.57
2022-09-10T00:36:43.229Z,51.27
2022-09-10T00:39:18.329Z,51.92
2022-09-10T00:41:54.826Z,52.23
2022-09-10T00:44:39.494Z,57.47
2022-09-10T00:47:19.048Z,50.92
2022-09-10T00:50:03.472Z,53.73
2022-09-10T00:52:39.543Z,53.08
2022-09-10T00:55:12.613Z,55.07
2022-09-10T00:57:47.654Z,50.13
2022-09-10T01:00:19.235Z,50.83
2022-09-10T01:02:55.008Z,52.07
2022-09-10T01:05:26.998Z,51.80
2022-09-10T01:07:58.796Z,52.13
2022-09-10T01:10:48.038Z,51.40
2022-09-10T01:13:25.460Z,48.90
2022-09-10T01:16:16.675Z,51.27
2022-09-10T01:19:35.792Z,54.47
2022-09-10T01:22:38.177Z,51.77
2022-09-10T01:25:23.252Z,52.00
2022-09-10T01:27:59.512Z,52.10
2022-09-10T01:30:41.508Z,49.90
2022-09-10T01:33:34.153Z,48.67
2022-09-10T01:36:15.749Z,52.53
2022-09-10T01:38:50.036Z,49.60
2022-09-10T01:41:25.955Z,52.08
2022-09-10T01:43:57.735Z,52.90
2022-09-10T01:46:39.652Z,50.00
2022-09-10T01:49:38.948Z,48.67
2022-09-10T01:52:48.168Z,48.80
2022-09-10T01:55:38.000Z,49.00
2022-09-10T01:58:12.834Z,48.87
2022-09-10T02:01:14.616Z,48.80
2022-09-10T02:03:50.570Z,50.20
2022-09-10T02:06:27.993Z,50.50
2022-09-10T02:09:01.761Z,48.77
2022-09-10T02:11:56.232Z,48.07
2022-09-10T02:14:55.611Z,54.43
2022-09-10T02:17:56.636Z,50.33
2022-09-10T02:20:30.402Z,52.63
2022-09-10T02:23:03.504Z,50.40
2022-09-10T02:25:38.494Z,50.93
2022-09-10T02:28:10.653Z,51.20
2022-09-10T02:30:42.284Z,48.57
2022-09-10T02:33:16.279Z,48.73
2022-09-10T02:35:50.541Z,49.65
2022-09-10T02:38:22.298Z,52.13
2022-09-10T02:40:55.665Z,50.90
2022-09-10T02:43:29.619Z,51.10
2022-09-10T02:46:08.865Z,51.10
2022-09-10T02:48:41.801Z,50.17
2022-09-10T02:51:14.005Z,53.60
2022-09-10T02:53:45.593Z,50.47
2022-09-10T02:56:19.696Z,50.40
2022-09-10T02:58:51.339Z,49.90
2022-09-10T03:01:24.300Z,50.13
2022-09-10T03:04:03.402Z,54.23
2022-09-10T03:06:36.825Z,53.70
2022-09-10T03:09:10.176Z,48.70
2022-09-10T03:11:41.843Z,53.67
2022-09-10T03:14:20.096Z,52.57
2022-09-10T03:16:52.666Z,50.87
2022-09-10T03:19:24.282Z,47.67
2022-09-10T03:21:59.836Z,51.97
2022-09-10T03:24:31.605Z,51.75
2022-09-10T03:27:03.381Z,53.37
2022-09-10T03:29:35.021Z,57.13
2022-09-10T03:32:06.725Z,49.33
2022-09-10T03:34:39.944Z,50.97
2022-09-10T03:37:15.377Z,53.77
2022-09-10T03:39:50.086Z,51.37
2022-09-10T03:44:55.443Z,51.33
2022-09-10T03:47:27.271Z,51.92
2022-09-10T03:49:59.749Z,52.90
2022-09-10T03:52:31.411Z,53.50
2022-09-10T03:55:03.188Z,51.37
2022-09-10T03:57:34.767Z,52.50
2022-09-10T04:00:07.832Z,55.83
2022-09-10T04:02:46.885Z,56.07
2022-09-10T04:05:19.840Z,56.53
2022-09-10T04:07:51.663Z,53.50
2022-09-10T04:10:24.021Z,64.40
2022-09-10T04:12:55.749Z,54.23
2022-09-10T04:15:27.436Z,62.60
2022-09-10T04:17:59.317Z,57.10
2022-09-10T04:20:32.121Z,59.93
2022-09-10T04:23:11.953Z,57.80
2022-09-10T04:25:46.599Z,56.23
2022-09-10T04:28:18.212Z,60.97
2022-09-10T04:30:53.332Z,57.60
2022-09-10T04:33:28.049Z,63.77
2022-09-10T04:36:01.040Z,60.47
2022-09-10T04:38:33.852Z,66.60
2022-09-10T04:41:06.181Z,60.37
2022-09-10T04:43:38.365Z,62.07
2022-09-10T04:46:11.991Z,63.83
2022-09-10T04:48:47.530Z,58.07
2022-09-10T04:51:25.274Z,59.00
2022-09-10T04:53:59.422Z,57.60
2022-09-10T04:56:36.345Z,55.90
2022-09-10T04:59:11.237Z,57.10
2022-09-10T05:01:43.351Z,62.70
2022-09-10T05:04:17.900Z,58.90
2022-09-10T05:06:51.292Z,60.67
2022-09-10T05:09:23.164Z,57.50
2022-09-10T05:11:54.822Z,64.80
2022-09-10T05:14:26.933Z,56.10
2022-09-10T05:16:59.954Z,60.63
2022-09-10T05:19:34.118Z,58.87
2022-09-10T05:22:10.147Z,60.83
2022-09-10T05:24:43.483Z,60.30
2022-09-10T05:27:16.112Z,63.23
2022-09-10T05:29:48.175Z,57.20
2022-09-10T05:32:23.940Z,58.67
2022-09-10T05:34:55.541Z,61.47
2022-09-10T05:37:27.836Z,58.63
2022-09-10T05:39:59.914Z,60.73
2022-09-10T05:42:31.926Z,58.77
2022-09-10T05:45:03.890Z,61.00
2022-09-10T05:47:37.593Z,64.37
2022-09-10T05:50:11.493Z,62.38
2022-09-10T05:52:43.387Z,63.30
2022-09-10T05:55:16.017Z,62.70
2022-09-10T05:57:50.625Z,63.60
2022-09-10T06:00:25.520Z,62.17
2022-09-10T06:03:04.508Z,63.80
2022-09-10T06:05:51.355Z,64.40
2022-09-10T06:11:02.599Z,68.10
2022-09-10T06:13:42.163Z,67.30
2022-09-10T06:16:17.086Z,67.43
2022-09-10T06:18:50.847Z,64.37
2022-09-10T06:21:28.400Z,68.97
2022-09-10T06:24:02.022Z,73.50
2022-09-10T06:26:37.495Z,64.00
2022-09-10T06:29:14.676Z,70.43
2022-09-10T06:31:47.721Z,69.57
2022-09-10T06:34:19.693Z,69.50
2022-09-10T06:36:51.720Z,74.90
2022-09-10T06:39:23.630Z,75.43
2022-09-10T06:42:00.024Z,78.53
2022-09-10T06:44:50.632Z,87.67
2022-09-10T06:50:50.181Z,93.23
2022-09-10T06:53:24.354Z,91.27
2022-09-10T06:55:56.756Z,90.67
2022-09-10T06:58:31.425Z,92.07
2022-09-10T07:01:14.761Z,94.23
2022-09-10T07:03:58.024Z,109.03
2022-09-10T07:06:34.744Z,95.53
2022-09-10T07:09:10.830Z,94.50
2022-09-10T07:12:14.524Z,102.87
2022-09-10T07:14:46.911Z,105.83
2022-09-10T07:17:20.310Z,104.03
2022-09-10T07:19:52.240Z,104.10
2022-09-10T07:22:45.996Z,104.73
2022-09-10T07:25:19.696Z,101.13
2022-09-10T07:28:03.756Z,101.00
2022-09-10T07:30:37.794Z,103.00
2022-09-10T07:33:11.155Z,100.93
2022-09-10T07:35:50.218Z,100.40
2022-09-10T07:38:24.371Z,101.90
2022-09-10T07:40:59.522Z,99.63
2022-09-10T07:43:31.568Z,94.47
2022-09-10T07:46:04.406Z,96.87
2022-09-10T07:48:37.328Z,95.80
2022-09-10T07:51:13.137Z,119.43
2022-09-10T07:53:50.667Z,102.53
2022-09-10T07:56:27.014Z,88.53
2022-09-10T07:58:58.652Z,87.47
2022-09-10T08:01:34.263Z,87.33
2022-09-10T08:04:07.632Z,83.90
2022-09-10T08:06:42.757Z,83.63
2022-09-10T08:09:14.912Z,86.10
2022-09-10T08:11:54.297Z,82.07
2022-09-10T08:14:28.154Z,80.00
2022-09-10T08:17:01.853Z,77.10
2022-09-10T08:19:34.120Z,76.57
2022-09-10T08:22:13.458Z,81.40
2022-09-10T08:24:51.056Z,82.45
2022-09-10T08:27:23.040Z,85.07
2022-09-10T08:29:54.738Z,86.50
2022-09-10T08:32:28.873Z,90.77
2022-09-10T08:35:04.899Z,90.27
2022-09-10T08:37:38.042Z,95.10
2022-09-10T08:40:13.308Z,93.53
2022-09-10T08:42:50.897Z,93.13
2022-09-10T08:45:31.737Z,92.23
2022-09-10T08:48:18.605Z,92.90
2022-09-10T08:51:03.655Z,97.83
2022-09-10T08:53:44.306Z,97.93
2022-09-10T08:56:24.385Z,92.20
2022-09-10T08:59:11.327Z,97.37
2022-09-10T09:02:37.872Z,93.03
2022-09-10T09:05:26.610Z,92.30
2022-09-10T09:08:04.289Z,94.27
2022-09-10T09:10:51.152Z,92.53
2022-09-10T09:13:32.109Z,94.07
2022-09-10T09:16:39.779Z,92.77
2022-09-10T09:19:36.545Z,96.20
2022-09-10T09:22:29.628Z,93.43
2022-09-10T09:25:27.637Z,96.07
2022-09-10T09:28:12.510Z,95.13
2022-09-10T09:30:49.694Z,92.97
2022-09-10T09:33:25.062Z,93.67
2022-09-10T09:36:01.921Z,91.20
2022-09-10T09:38:45.318Z,91.53
2022-09-10T09:41:31.168Z,89.67
2022-09-10T09:44:15.956Z,86.17
2022-09-10T09:46:49.357Z,81.93
2022-09-10T09:49:23.270Z,86.03
2022-09-10T09:57:24.917Z,83.33
2022-09-10T09:59:56.696Z,82.83
2022-09-10T10:02:30.409Z,78.20
2022-09-10T10:05:01.998Z,83.18
2022-09-10T10:07:36.305Z,77.57
2022-09-10T10:12:48.330Z,81.40
2022-09-10T10:15:41.904Z,78.77
2022-09-10T10:18:22.495Z,77.40
2022-09-10T10:21:17.271Z,82.93
2022-09-10T10:23:52.089Z,78.55
2022-09-10T10:26:32.130Z,77.67
2022-09-10T10:29:22.433Z,80.53
2022-09-10T10:31:56.104Z,77.10
2022-09-10T10:34:45.230Z,83.70
2022-09-10T10:37:53.691Z,84.67
2022-09-10T10:40:57.079Z,90.35
2022-09-10T10:43:52.584Z,91.37
2022-09-10T10:46:30.318Z,96.23
2022-09-10T10:49:19.934Z,95.83
2022-09-10T10:52:00.766Z,95.77
2022-09-10T10:54:51.366Z,91.30
2022-09-10T10:57:38.073Z,92.57
2022-09-10T11:00:20.946Z,87.17
2022-09-10T11:03:10.018Z,86.70
2022-09-10T11:05:52.464Z,89.27
2022-09-10T11:08:32.376Z,92.53
2022-09-10T11:11:36.297Z,88.20
2022-09-10T11:14:29.822Z,91.30
2022-09-10T11:17:12.279Z,86.87
2022-09-10T11:20:27.186Z,86.40
2022-09-10T11:23:12.526Z,91.27
2022-09-10T11:26:04.585Z,88.57
2022-09-10T11:29:03.524Z,87.13
2022-09-10T11:31:45.145Z,84.00
2022-09-10T11:34:42.767Z,85.93
2022-09-10T11:37:45.711Z,86.70
2022-09-10T11:40:31.145Z,91.57
2022-09-10T11:43:19.672Z,87.13
2022-09-10T11:46:06.290Z,85.07
2022-09-10T11:49:00.604Z,88.47
2022-09-10T11:51:41.700Z,89.53
2022-09-10T11:54:23.367Z,89.80
2022-09-10T11:57:39.870Z,87.60
2022-09-10T12:00:27.456Z,88.00
2022-09-10T12:03:23.428Z,82.93
2022-09-10T12:06:13.532Z,85.20
2022-09-10T12:09:01.097Z,87.47
2022-09-10T12:11:51.620Z,81.37
2022-09-10T12:14:23.291Z,80.73
2022-09-10T12:17:08.675Z,81.88
2022-09-10T12:19:56.559Z,83.83
2022-09-10T12:22:34.456Z,78.63
2022-09-10T12:25:28.358Z,82.40
2022-09-10T12:28:07.762Z,77.63
2022-09-10T12:30:42.546Z,77.97
2022-09-10T12:33:17.054Z,80.27
2022-09-10T12:35:53.211Z,86.03
2022-09-10T12:39:18.477Z,80.67
2022-09-10T12:41:56.010Z,85.10
2022-09-10T12:44:43.258Z,88.03
2022-09-10T12:47:17.543Z,80.87
2022-09-10T12:50:06.970Z,80.47
2022-09-10T12:53:08.925Z,87.40
2022-09-10T12:56:18.490Z,85.37
2022-09-10T12:59:12.465Z,83.87
2022-09-10T13:01:48.173Z,82.53
2022-09-10T13:04:32.879Z,82.23
2022-09-10T13:07:23.546Z,78.73
2022-09-10T13:10:22.114Z,82.10
2022-09-10T13:12:58.690Z,79.17
2022-09-10T13:15:35.666Z,80.97
2022-09-10T13:18:25.430Z,75.87
2022-09-10T13:20:59.189Z,79.13
2022-09-10T13:23:44.113Z,77.83
2022-09-10T13:26:48.428Z,77.13
2022-09-10T13:29:37.159Z,73.13
2022-09-10T13:32:20.345Z,77.33
2022-09-10T13:35:08.043Z,76.30
2022-09-10T13:38:07.509Z,76.83
2022-09-10T13:40:59.674Z,76.83
2022-09-10T13:44:04.906Z,81.90
2022-09-10T13:49:35.836Z,78.50
2022-09-10T13:52:15.124Z,78.60
2022-09-10T13:54:54.986Z,76.07
2022-09-10T13:57:31.254Z,80.77
2022-09-10T14:00:24.635Z,78.77
2022-09-10T14:02:58.722Z,80.07
2022-09-10T14:05:33.842Z,77.32
2022-09-10T14:08:31.747Z,82.23
2022-09-10T14:11:07.062Z,76.50
2022-09-10T14:14:01.632Z,79.00
2022-09-10T14:16:44.633Z,75.25
2022-09-10T14:19:40.980Z,76.40
2022-09-10T14:22:22.542Z,77.10
2022-09-10T14:25:05.313Z,77.90
2022-09-10T14:27:45.073Z,77.13
2022-09-10T14:30:29.911Z,78.40
2022-09-10T14:33:32.301Z,73.03
2022-09-10T14:36:29.155Z,75.60
2022-09-10T14:39:15.572Z,73.93
2022-09-10T14:42:09.349Z,72.07
2022-09-10T14:44:42.578Z,68.67
2022-09-10T14:47:23.146Z,71.33
2022-09-10T14:50:16.156Z,73.60
2022-09-10T14:52:48.460Z,72.97
2022-09-10T14:55:20.335Z,73.57
2022-09-10T14:57:55.893Z,73.47
2022-09-10T15:00:28.232Z,73.17
2022-09-10T15:03:00.664Z,71.27
2022-09-10T15:05:33.417Z,70.87
2022-09-10T15:08:05.295Z,70.27
2022-09-10T15:10:39.453Z,75.17
2022-09-10T15:13:20.930Z,71.80
2022-09-10T15:15:58.739Z,74.83
2022-09-10T15:18:30.361Z,69.73
2022-09-10T15:21:05.920Z,72.20
2022-09-10T15:23:41.729Z,71.27
2022-09-10T15:26:16.143Z,72.13
2022-09-10T15:28:47.780Z,73.72
2022-09-10T15:31:19.476Z,73.97
2022-09-10T15:33:52.090Z,79.33
2022-09-10T15:36:28.308Z,74.07
2022-09-10T15:39:04.376Z,71.20
2022-09-10T15:41:43.657Z,76.57
2022-09-10T15:44:18.425Z,72.13
2022-09-10T15:46:51.072Z,74.37
2022-09-10T15:49:25.664Z,74.53
2022-09-10T15:51:57.305Z,72.07
2022-09-10T15:54:31.862Z,74.30
2022-09-10T15:57:07.995Z,71.90
2022-09-10T15:59:40.891Z,73.13
2022-09-10T16:02:15.281Z,72.27
2022-09-10T16:07:24.445Z,77.38
2022-09-10T16:09:58.859Z,71.77
2022-09-10T16:12:31.204Z,73.55
2022-09-10T16:15:03.026Z,72.43
2022-09-10T16:17:34.578Z,70.20
2022-09-10T16:20:06.510Z,72.60
2022-09-10T16:22:38.043Z,69.70
2022-09-10T16:25:12.512Z,70.50
2022-09-10T16:30:17.866Z,71.73
2022-09-10T16:32:49.445Z,66.63
2022-09-10T16:35:23.214Z,67.20
2022-09-10T16:37:55.938Z,73.03
2022-09-10T16:40:27.604Z,69.77
2022-09-10T16:42:59.518Z,72.57
2022-09-10T16:45:31.350Z,76.50
2022-09-10T16:48:05.367Z,72.87
2022-09-10T16:50:37.606Z,70.18
2022-09-10T16:53:12.076Z,69.47
2022-09-10T16:55:46.437Z,70.37
2022-09-10T16:58:18.040Z,71.78
2022-09-10T17:00:51.974Z,74.00
2022-09-10T17:03:24.150Z,72.45
2022-09-10T17:05:59.434Z,70.77
2022-09-10T17:08:31.101Z,72.80
2022-09-10T17:11:02.760Z,66.83
2022-09-10T17:13:36.014Z,71.30
2022-09-10T17:16:25.899Z,68.97
2022-09-10T17:19:01.924Z,67.77
2022-09-10T17:21:35.345Z,72.20
2022-09-10T17:24:09.709Z,67.27
2022-09-10T17:29:20.505Z,68.03
2022-09-10T17:34:30.220Z,67.60
2022-09-10T17:37:02.040Z,68.73
2022-09-10T17:39:33.652Z,68.03
2022-09-10T17:42:06.060Z,68.23
2022-09-10T17:44:37.575Z,68.73
2022-09-10T17:47:09.659Z,69.70
2022-09-10T17:49:44.992Z,65.30
2022-09-10T17:52:16.610Z,66.07
2022-09-10T17:54:48.314Z,63.13
2022-09-10T17:57:21.206Z,66.03
2022-09-10T17:59:52.742Z,64.13
2022-09-10T18:02:24.575Z,65.83
2022-09-10T18:04:56.606Z,65.10
2022-09-10T18:07:28.210Z,66.43
2022-09-10T18:09:59.919Z,64.13
2022-09-10T18:12:31.524Z,62.90
2022-09-10T18:15:04.651Z,64.70
2022-09-10T18:17:36.392Z,65.93
2022-09-10T18:20:08.433Z,66.20
2022-09-10T18:22:43.328Z,64.70
2022-09-10T18:25:15.167Z,66.63
2022-09-10T18:27:48.592Z,63.40
2022-09-10T18:30:22.154Z,65.40
2022-09-10T18:32:53.799Z,66.67
2022-09-10T18:35:28.075Z,63.03
2022-09-10T18:38:08.768Z,64.77
2022-09-10T18:40:42.428Z,61.90
2022-09-10T18:43:15.417Z,61.13
2022-09-10T18:45:47.098Z,66.47
2022-09-10T18:48:18.762Z,63.23
2022-09-10T18:50:50.330Z,65.63
2022-09-10T18:53:25.233Z,67.97
2022-09-10T18:55:57.069Z,66.87
2022-09-10T18:58:28.632Z,61.47
2022-09-10T19:01:11.948Z,63.87
2022-09-10T19:03:46.395Z,65.53
2022-09-10T19:09:36.522Z,62.33
2022-09-10T19:12:08.458Z,59.87
2022-09-10T19:14:39.982Z,63.27
2022-09-10T19:17:15.816Z,58.47
2022-09-10T19:19:47.591Z,57.67
2022-09-10T19:22:19.120Z,62.87
2022-09-10T19:24:56.158Z,57.33
2022-09-10T19:27:28.464Z,57.73
2022-09-10T19:30:00.041Z,56.57
2022-09-10T19:32:33.860Z,57.78
2022-09-10T19:35:05.688Z,61.37
2022-09-10T19:37:37.223Z,60.23
2022-09-10T19:40:11.895Z,62.20
2022-09-10T19:42:43.465Z,56.77
2022-09-10T19:45:15.311Z,58.73
2022-09-10T19:47:47.128Z,56.27
2022-09-10T19:50:23.273Z,59.57
2022-09-10T19:52:55.307Z,57.63
2022-09-10T19:55:26.989Z,60.70
2022-09-10T19:58:00.995Z,57.63
2022-09-10T20:00:46.398Z,58.85
2022-09-10T20:03:18.678Z,54.63
2022-09-10T20:05:50.279Z,58.43
2022-09-10T20:08:21.811Z,56.83
2022-09-10T20:10:55.745Z,56.43
2022-09-10T20:13:28.337Z,57.50
2022-09-10T20:16:04.015Z,58.90
2022-09-10T20:18:37.551Z,60.27
2022-09-10T20:21:25.509Z,58.83
2022-09-10T20:23:58.196Z,59.03
2022-09-10T20:26:39.271Z,55.47
2022-09-10T20:29:14.174Z,57.63
2022-09-10T20:31:47.016Z,58.90
2022-09-10T20:34:20.860Z,56.13
2022-09-10T20:36:52.549Z,57.33
2022-09-10T20:39:25.353Z,56.33
2022-09-10T20:41:57.823Z,57.27
2022-09-10T20:44:33.065Z,62.20
2022-09-10T20:47:04.876Z,60.77
2022-09-10T20:49:37.324Z,60.00
2022-09-10T20:52:08.905Z,59.77
2022-09-10T20:54:40.492Z,59.13
2022-09-10T20:57:18.951Z,60.63
2022-09-10T20:59:52.168Z,58.17
2022-09-10T21:02:24.112Z,60.40
2022-09-10T21:04:56.086Z,58.03
2022-09-10T21:07:30.766Z,56.77
2022-09-10T21:10:02.297Z,56.57
2022-09-10T21:12:36.302Z,57.77
2022-09-10T21:15:08.830Z,60.33
2022-09-10T21:17:40.385Z,56.60
2022-09-10T21:20:13.393Z,61.17
2022-09-10T21:22:48.942Z,60.37
2022-09-10T21:25:23.116Z,61.97
2022-09-10T21:27:54.989Z,57.45
2022-09-10T21:30:26.868Z,59.97
2022-09-10T21:32:58.532Z,60.00
2022-09-10T21:35:31.107Z,61.90
2022-09-10T21:38:02.653Z,61.00
2022-09-10T21:40:34.222Z,56.27
2022-09-10T21:43:06.372Z,55.63
2022-09-10T21:45:39.220Z,58.10
2022-09-10T21:48:10.762Z,61.67
2022-09-10T21:50:42.345Z,57.00
2022-09-10T21:53:20.733Z,54.37
2022-09-10T21:56:04.024Z,55.83
2022-09-10T21:58:37.052Z,55.47
2022-09-10T22:01:12.035Z,56.60
2022-09-10T22:03:45.993Z,57.20
2022-09-10T22:06:19.833Z,60.45
2022-09-10T22:09:00.997Z,57.42
2022-09-10T22:11:38.850Z,56.67
2022-09-10T22:14:16.046Z,58.63
2022-09-10T22:16:48.347Z,56.57
2022-09-10T22:19:24.111Z,57.37
2022-09-10T22:21:56.811Z,59.13
2022-09-10T22:24:29.458Z,57.07
2022-09-10T22:27:01.165Z,57.33
2022-09-10T22:29:32.740Z,58.53
2022-09-10T22:32:04.837Z,56.37
2022-09-10T22:34:37.676Z,58.27
2022-09-10T22:37:09.478Z,56.47
2022-09-10T22:39:41.159Z,54.60
2022-09-10T22:42:12.749Z,56.33
2022-09-10T22:44:44.596Z,55.30
2022-09-10T22:47:18.621Z,56.67
2022-09-10T22:49:50.877Z,54.22
2022-09-10T22:52:22.399Z,57.03
2022-09-10T22:54:59.016Z,55.30
2022-09-10T23:00:03.969Z,56.47
2022-09-10T23:02:36.329Z,54.03
2022-09-10T23:05:08.440Z,56.80
2022-09-10T23:07:43.178Z,56.93
2022-09-10T23:10:14.848Z,52.90
2022-09-10T23:12:46.980Z,56.80
2022-09-10T23:15:18.585Z,55.57
2022-09-10T23:17:50.245Z,53.70
2022-09-10T23:20:21.804Z,58.67
2022-09-10T23:22:53.405Z,55.53
2022-09-10T23:25:25.138Z,54.73
2022-09-10T23:27:56.646Z,55.97
2022-09-10T23:30:29.605Z,58.60
2022-09-10T23:33:01.146Z,58.23
2022-09-10T23:35:36.373Z,53.77
2022-09-10T23:38:07.994Z,59.03
2022-09-10T23:40:41.648Z,59.95
2022-09-10T23:43:14.438Z,60.03
2022-09-10T23:45:45.968Z,59.73
2022-09-10T23:48:17.533Z,56.63
2022-09-10T23:50:53.153Z,52.83
2022-09-10T23:53:27.665Z,56.17
2022-09-10T23:56:01.529Z,53.30
2022-09-10T23:58:36.161Z,54.55
